sensor_id;sensor_type;location;lat;lon;timestamp;P1;durP1;ratioP1;P2;durP2;ratioP2
19919;SDS011;10122;50.074;19.920;2023-04-06T00:01:35;13.73;;;7.90;;
19919;SDS011;10122;50.074;19.920;2023-04-06T00:04:01;12.15;;;7.10;;
19919;SDS011;10122;50.074;19.920;2023-04-06T00:06:26;14.90;;;7.75;;
19919;SDS011;10122;50.074;19.920;2023-04-06T00:08:52;14.90;;;7.85;;
19919;SDS011;10122;50.074;19.920;2023-04-06T00:11:18;16.55;;;8.52;;
19919;SDS011;10122;50.074;19.920;2023-04-06T00:13:44;14.70;;;7.75;;
19919;SDS011;10122;50.074;19.920;2023-04-06T00:16:10;15.27;;;8.63;;
19919;SDS011;10122;50.074;19.920;2023-04-06T00:18:36;13.77;;;7.97;;
19919;SDS011;10122;50.074;19.920;2023-04-06T00:21:02;14.52;;;8.10;;
19919;SDS011;10122;50.074;19.920;2023-04-06T00:23:28;14.05;;;8.43;;
19919;SDS011;10122;50.074;19.920;2023-04-06T00:25:54;16.85;;;8.52;;
19919;SDS011;10122;50.074;19.920;2023-04-06T00:28:20;13.85;;;7.55;;
19919;SDS011;10122;50.074;19.920;2023-04-06T00:30:50;14.30;;;7.88;;
19919;SDS011;10122;50.074;19.920;2023-04-06T00:33:17;14.52;;;8.10;;
19919;SDS011;10122;50.074;19.920;2023-04-06T00:35:43;15.70;;;8.55;;
19919;SDS011;10122;50.074;19.920;2023-04-06T00:38:09;15.32;;;7.85;;
19919;SDS011;10122;50.074;19.920;2023-04-06T00:40:35;13.88;;;8.32;;
19919;SDS011;10122;50.074;19.920;2023-04-06T00:43:01;15.43;;;8.60;;
19919;SDS011;10122;50.074;19.920;2023-04-06T00:45:27;14.05;;;8.55;;
19919;SDS011;10122;50.074;19.920;2023-04-06T00:47:53;16.60;;;8.90;;
19919;SDS011;10122;50.074;19.920;2023-04-06T00:50:19;17.73;;;9.00;;
19919;SDS011;10122;50.074;19.920;2023-04-06T00:52:44;16.30;;;8.82;;
19919;SDS011;10122;50.074;19.920;2023-04-06T00:55:10;19.02;;;9.98;;
19919;SDS011;10122;50.074;19.920;2023-04-06T00:57:36;15.38;;;8.95;;
19919;SDS011;10122;50.074;19.920;2023-04-06T01:00:02;18.70;;;9.30;;
19919;SDS011;10122;50.074;19.920;2023-04-06T01:02:28;18.15;;;9.60;;
19919;SDS011;10122;50.074;19.920;2023-04-06T01:04:54;16.05;;;9.20;;
19919;SDS011;10122;50.074;19.920;2023-04-06T01:07:20;18.52;;;9.80;;
19919;SDS011;10122;50.074;19.920;2023-04-06T01:09:46;15.05;;;9.00;;
19919;SDS011;10122;50.074;19.920;2023-04-06T01:12:12;16.48;;;9.82;;
19919;SDS011;10122;50.074;19.920;2023-04-06T01:14:37;18.45;;;10.05;;
19919;SDS011;10122;50.074;19.920;2023-04-06T01:17:03;16.95;;;10.20;;
19919;SDS011;10122;50.074;19.920;2023-04-06T01:19:29;15.48;;;9.20;;
19919;SDS011;10122;50.074;19.920;2023-04-06T01:21:55;16.98;;;10.15;;
19919;SDS011;10122;50.074;19.920;2023-04-06T01:24:21;17.55;;;9.90;;
19919;SDS011;10122;50.074;19.920;2023-04-06T01:26:47;16.98;;;9.93;;
19919;SDS011;10122;50.074;19.920;2023-04-06T01:29:13;17.08;;;9.18;;
19919;SDS011;10122;50.074;19.920;2023-04-06T01:31:39;16.20;;;10.02;;
19919;SDS011;10122;50.074;19.920;2023-04-06T01:34:05;18.05;;;10.55;;
19919;SDS011;10122;50.074;19.920;2023-04-06T01:36:30;19.05;;;10.57;;
19919;SDS011;10122;50.074;19.920;2023-04-06T01:38:56;20.00;;;10.95;;
19919;SDS011;10122;50.074;19.920;2023-04-06T01:41:22;17.65;;;10.38;;
19919;SDS011;10122;50.074;19.920;2023-04-06T01:43:48;18.75;;;10.38;;
19919;SDS011;10122;50.074;19.920;2023-04-06T01:46:14;18.25;;;10.18;;
19919;SDS011;10122;50.074;19.920;2023-04-06T01:48:40;17.95;;;10.23;;
19919;SDS011;10122;50.074;19.920;2023-04-06T01:51:06;20.00;;;10.95;;
19919;SDS011;10122;50.074;19.920;2023-04-06T01:53:32;17.42;;;9.65;;
19919;SDS011;10122;50.074;19.920;2023-04-06T01:55:58;21.02;;;10.60;;
19919;SDS011;10122;50.074;19.920;2023-04-06T01:58:23;20.30;;;10.80;;
19919;SDS011;10122;50.074;19.920;2023-04-06T02:00:50;18.45;;;10.00;;
19919;SDS011;10122;50.074;19.920;2023-04-06T02:03:16;18.95;;;10.73;;
19919;SDS011;10122;50.074;19.920;2023-04-06T02:05:41;17.08;;;10.30;;
19919;SDS011;10122;50.074;19.920;2023-04-06T02:08:07;19.00;;;10.38;;
19919;SDS011;10122;50.074;19.920;2023-04-06T02:10:33;19.80;;;11.18;;
19919;SDS011;10122;50.074;19.920;2023-04-06T02:12:59;17.13;;;9.75;;
19919;SDS011;10122;50.074;19.920;2023-04-06T02:15:26;21.55;;;10.98;;
19919;SDS011;10122;50.074;19.920;2023-04-06T02:17:52;18.58;;;10.57;;
19919;SDS011;10122;50.074;19.920;2023-04-06T02:20:18;18.52;;;10.85;;
19919;SDS011;10122;50.074;19.920;2023-04-06T02:22:43;19.38;;;10.57;;
19919;SDS011;10122;50.074;19.920;2023-04-06T02:25:09;19.08;;;10.93;;
19919;SDS011;10122;50.074;19.920;2023-04-06T02:27:35;17.50;;;10.75;;
19919;SDS011;10122;50.074;19.920;2023-04-06T02:30:02;18.63;;;10.45;;
19919;SDS011;10122;50.074;19.920;2023-04-06T02:32:28;19.75;;;10.48;;
19919;SDS011;10122;50.074;19.920;2023-04-06T02:34:54;18.63;;;9.82;;
19919;SDS011;10122;50.074;19.920;2023-04-06T02:37:20;17.70;;;10.50;;
19919;SDS011;10122;50.074;19.920;2023-04-06T02:39:46;18.23;;;10.68;;
19919;SDS011;10122;50.074;19.920;2023-04-06T02:42:12;16.80;;;10.23;;
19919;SDS011;10122;50.074;19.920;2023-04-06T02:44:40;15.80;;;9.50;;
19919;SDS011;10122;50.074;19.920;2023-04-06T02:47:06;17.05;;;10.25;;
19919;SDS011;10122;50.074;19.920;2023-04-06T02:49:32;18.38;;;10.63;;
19919;SDS011;10122;50.074;19.920;2023-04-06T02:51:57;16.60;;;10.10;;
19919;SDS011;10122;50.074;19.920;2023-04-06T02:54:23;19.02;;;9.88;;
19919;SDS011;10122;50.074;19.920;2023-04-06T02:56:49;20.95;;;11.25;;
19919;SDS011;10122;50.074;19.920;2023-04-06T02:59:15;16.33;;;10.07;;
19919;SDS011;10122;50.074;19.920;2023-04-06T03:01:41;20.00;;;10.77;;
19919;SDS011;10122;50.074;19.920;2023-04-06T03:04:06;17.17;;;10.23;;
19919;SDS011;10122;50.074;19.920;2023-04-06T03:06:32;19.52;;;10.68;;
19919;SDS011;10122;50.074;19.920;2023-04-06T03:08:58;15.00;;;9.18;;
19919;SDS011;10122;50.074;19.920;2023-04-06T03:11:23;16.98;;;10.40;;
19919;SDS011;10122;50.074;19.920;2023-04-06T03:13:51;17.27;;;10.52;;
19919;SDS011;10122;50.074;19.920;2023-04-06T03:16:17;16.83;;;9.88;;
19919;SDS011;10122;50.074;19.920;2023-04-06T03:18:43;15.97;;;9.77;;
19919;SDS011;10122;50.074;19.920;2023-04-06T03:21:12;15.55;;;9.38;;
19919;SDS011;10122;50.074;19.920;2023-04-06T03:23:40;17.52;;;10.02;;
19919;SDS011;10122;50.074;19.920;2023-04-06T03:26:06;18.65;;;10.43;;
19919;SDS011;10122;50.074;19.920;2023-04-06T03:28:31;17.73;;;10.60;;
19919;SDS011;10122;50.074;19.920;2023-04-06T03:30:57;18.70;;;10.13;;
19919;SDS011;10122;50.074;19.920;2023-04-06T03:33:23;18.08;;;11.00;;
19919;SDS011;10122;50.074;19.920;2023-04-06T03:35:51;18.70;;;10.43;;
19919;SDS011;10122;50.074;19.920;2023-04-06T03:38:18;17.92;;;11.23;;
19919;SDS011;10122;50.074;19.920;2023-04-06T03:40:43;17.92;;;10.20;;
19919;SDS011;10122;50.074;19.920;2023-04-06T03:43:09;16.38;;;10.38;;
19919;SDS011;10122;50.074;19.920;2023-04-06T03:45:35;18.92;;;11.20;;
19919;SDS011;10122;50.074;19.920;2023-04-06T03:48:00;20.33;;;11.15;;
19919;SDS011;10122;50.074;19.920;2023-04-06T03:50:26;20.05;;;11.10;;
19919;SDS011;10122;50.074;19.920;2023-04-06T03:52:52;19.40;;;11.35;;
19919;SDS011;10122;50.074;19.920;2023-04-06T03:55:17;24.20;;;11.75;;
19919;SDS011;10122;50.074;19.920;2023-04-06T03:57:43;26.30;;;12.05;;
19919;SDS011;10122;50.074;19.920;2023-04-06T04:00:09;20.17;;;11.55;;
19919;SDS011;10122;50.074;19.920;2023-04-06T04:02:35;21.48;;;12.57;;
19919;SDS011;10122;50.074;19.920;2023-04-06T04:05:01;20.90;;;11.77;;
19919;SDS011;10122;50.074;19.920;2023-04-06T04:07:27;20.13;;;11.75;;
19919;SDS011;10122;50.074;19.920;2023-04-06T04:09:53;22.52;;;12.13;;
19919;SDS011;10122;50.074;19.920;2023-04-06T04:12:18;19.77;;;11.98;;
19919;SDS011;10122;50.074;19.920;2023-04-06T04:14:44;21.00;;;11.82;;
19919;SDS011;10122;50.074;19.920;2023-04-06T04:17:10;24.15;;;12.80;;
19919;SDS011;10122;50.074;19.920;2023-04-06T04:19:36;24.50;;;12.57;;
19919;SDS011;10122;50.074;19.920;2023-04-06T04:22:02;21.25;;;12.77;;
19919;SDS011;10122;50.074;19.920;2023-04-06T04:24:30;24.80;;;12.73;;
19919;SDS011;10122;50.074;19.920;2023-04-06T04:26:55;23.85;;;12.93;;
19919;SDS011;10122;50.074;19.920;2023-04-06T04:29:21;22.20;;;12.48;;
19919;SDS011;10122;50.074;19.920;2023-04-06T04:31:48;22.83;;;13.38;;
19919;SDS011;10122;50.074;19.920;2023-04-06T04:34:14;23.20;;;13.02;;
19919;SDS011;10122;50.074;19.920;2023-04-06T04:36:40;22.73;;;12.77;;
19919;SDS011;10122;50.074;19.920;2023-04-06T04:39:09;20.25;;;12.57;;
19919;SDS011;10122;50.074;19.920;2023-04-06T04:41:35;22.17;;;12.80;;
19919;SDS011;10122;50.074;19.920;2023-04-06T04:44:01;23.98;;;12.82;;
19919;SDS011;10122;50.074;19.920;2023-04-06T04:46:26;25.00;;;12.98;;
19919;SDS011;10122;50.074;19.920;2023-04-06T04:48:52;22.17;;;12.15;;
19919;SDS011;10122;50.074;19.920;2023-04-06T04:51:18;21.13;;;12.25;;
19919;SDS011;10122;50.074;19.920;2023-04-06T04:53:44;22.77;;;12.82;;
19919;SDS011;10122;50.074;19.920;2023-04-06T04:56:10;23.77;;;13.30;;
19919;SDS011;10122;50.074;19.920;2023-04-06T04:58:36;22.80;;;13.10;;
19919;SDS011;10122;50.074;19.920;2023-04-06T05:01:02;23.02;;;12.48;;
19919;SDS011;10122;50.074;19.920;2023-04-06T05:03:27;22.45;;;12.77;;
19919;SDS011;10122;50.074;19.920;2023-04-06T05:05:53;25.57;;;11.90;;
19919;SDS011;10122;50.074;19.920;2023-04-06T05:08:19;25.27;;;12.60;;
19919;SDS011;10122;50.074;19.920;2023-04-06T05:10:45;20.55;;;11.88;;
19919;SDS011;10122;50.074;19.920;2023-04-06T05:13:11;21.90;;;12.48;;
19919;SDS011;10122;50.074;19.920;2023-04-06T05:15:37;21.80;;;12.18;;
19919;SDS011;10122;50.074;19.920;2023-04-06T05:18:06;21.25;;;12.02;;
19919;SDS011;10122;50.074;19.920;2023-04-06T05:20:33;24.10;;;12.43;;
19919;SDS011;10122;50.074;19.920;2023-04-06T05:22:59;23.92;;;12.15;;
19919;SDS011;10122;50.074;19.920;2023-04-06T05:25:25;20.92;;;11.43;;
19919;SDS011;10122;50.074;19.920;2023-04-06T05:27:51;22.00;;;12.23;;
19919;SDS011;10122;50.074;19.920;2023-04-06T05:30:17;20.35;;;11.82;;
19919;SDS011;10122;50.074;19.920;2023-04-06T05:32:43;22.45;;;11.48;;
19919;SDS011;10122;50.074;19.920;2023-04-06T05:35:09;20.40;;;11.00;;
19919;SDS011;10122;50.074;19.920;2023-04-06T05:37:35;18.45;;;11.02;;
19919;SDS011;10122;50.074;19.920;2023-04-06T05:40:01;23.00;;;11.75;;
19919;SDS011;10122;50.074;19.920;2023-04-06T05:42:27;20.60;;;11.73;;
19919;SDS011;10122;50.074;19.920;2023-04-06T05:45:01;23.30;;;11.82;;
19919;SDS011;10122;50.074;19.920;2023-04-06T05:47:27;18.98;;;11.20;;
19919;SDS011;10122;50.074;19.920;2023-04-06T05:49:53;18.95;;;11.15;;
19919;SDS011;10122;50.074;19.920;2023-04-06T05:52:18;19.60;;;11.25;;
19919;SDS011;10122;50.074;19.920;2023-04-06T05:54:44;18.33;;;11.00;;
19919;SDS011;10122;50.074;19.920;2023-04-06T05:57:10;16.95;;;10.43;;
19919;SDS011;10122;50.074;19.920;2023-04-06T05:59:36;18.50;;;10.07;;
19919;SDS011;10122;50.074;19.920;2023-04-06T06:02:01;17.98;;;10.13;;
19919;SDS011;10122;50.074;19.920;2023-04-06T06:04:27;17.42;;;9.73;;
19919;SDS011;10122;50.074;19.920;2023-04-06T06:06:53;17.25;;;9.80;;
19919;SDS011;10122;50.074;19.920;2023-04-06T06:09:18;15.02;;;8.68;;
19919;SDS011;10122;50.074;19.920;2023-04-06T06:11:44;16.92;;;9.73;;
19919;SDS011;10122;50.074;19.920;2023-04-06T06:14:11;15.93;;;8.95;;
19919;SDS011;10122;50.074;19.920;2023-04-06T06:16:36;17.77;;;9.45;;
19919;SDS011;10122;50.074;19.920;2023-04-06T06:19:02;18.02;;;9.40;;
19919;SDS011;10122;50.074;19.920;2023-04-06T06:21:28;15.98;;;8.75;;
19919;SDS011;10122;50.074;19.920;2023-04-06T06:23:53;14.95;;;8.55;;
19919;SDS011;10122;50.074;19.920;2023-04-06T06:26:19;17.75;;;8.95;;
19919;SDS011;10122;50.074;19.920;2023-04-06T06:28:45;13.82;;;8.77;;
19919;SDS011;10122;50.074;19.920;2023-04-06T06:31:11;14.43;;;7.90;;
19919;SDS011;10122;50.074;19.920;2023-04-06T06:33:37;15.50;;;7.95;;
19919;SDS011;10122;50.074;19.920;2023-04-06T06:36:04;14.88;;;7.95;;
19919;SDS011;10122;50.074;19.920;2023-04-06T06:38:30;13.63;;;7.68;;
19919;SDS011;10122;50.074;19.920;2023-04-06T06:40:55;16.52;;;8.70;;
19919;SDS011;10122;50.074;19.920;2023-04-06T06:43:21;14.40;;;8.20;;
19919;SDS011;10122;50.074;19.920;2023-04-06T06:45:47;13.82;;;8.00;;
19919;SDS011;10122;50.074;19.920;2023-04-06T06:48:13;16.30;;;8.45;;
19919;SDS011;10122;50.074;19.920;2023-04-06T06:50:38;14.13;;;8.13;;
19919;SDS011;10122;50.074;19.920;2023-04-06T06:53:04;12.27;;;7.55;;
19919;SDS011;10122;50.074;19.920;2023-04-06T06:55:30;17.88;;;7.70;;
19919;SDS011;10122;50.074;19.920;2023-04-06T06:57:56;10.75;;;6.93;;
19919;SDS011;10122;50.074;19.920;2023-04-06T07:00:22;12.10;;;6.80;;
19919;SDS011;10122;50.074;19.920;2023-04-06T07:02:48;12.63;;;6.82;;
19919;SDS011;10122;50.074;19.920;2023-04-06T07:05:14;12.80;;;7.47;;
19919;SDS011;10122;50.074;19.920;2023-04-06T07:07:41;9.82;;;5.78;;
19919;SDS011;10122;50.074;19.920;2023-04-06T07:10:07;10.63;;;5.78;;
19919;SDS011;10122;50.074;19.920;2023-04-06T07:12:33;13.15;;;6.65;;
19919;SDS011;10122;50.074;19.920;2023-04-06T07:15:00;11.68;;;7.13;;
19919;SDS011;10122;50.074;19.920;2023-04-06T07:17:26;11.13;;;6.10;;
19919;SDS011;10122;50.074;19.920;2023-04-06T07:19:51;11.02;;;6.40;;
19919;SDS011;10122;50.074;19.920;2023-04-06T07:22:17;6.97;;;4.55;;
19919;SDS011;10122;50.074;19.920;2023-04-06T07:24:43;11.60;;;6.40;;
19919;SDS011;10122;50.074;19.920;2023-04-06T07:27:08;10.30;;;6.10;;
19919;SDS011;10122;50.074;19.920;2023-04-06T07:29:34;10.45;;;5.63;;
19919;SDS011;10122;50.074;19.920;2023-04-06T07:32:00;7.80;;;5.18;;
19919;SDS011;10122;50.074;19.920;2023-04-06T07:34:26;10.02;;;5.88;;
19919;SDS011;10122;50.074;19.920;2023-04-06T07:36:52;13.48;;;5.70;;
19919;SDS011;10122;50.074;19.920;2023-04-06T07:39:18;11.43;;;6.47;;
19919;SDS011;10122;50.074;19.920;2023-04-06T07:41:45;11.95;;;6.60;;
19919;SDS011;10122;50.074;19.920;2023-04-06T07:44:11;10.48;;;6.50;;
19919;SDS011;10122;50.074;19.920;2023-04-06T07:46:36;8.48;;;5.03;;
19919;SDS011;10122;50.074;19.920;2023-04-06T07:49:02;10.95;;;6.57;;
19919;SDS011;10122;50.074;19.920;2023-04-06T07:51:28;12.80;;;6.97;;
19919;SDS011;10122;50.074;19.920;2023-04-06T07:53:54;11.63;;;6.95;;
19919;SDS011;10122;50.074;19.920;2023-04-06T07:56:20;10.38;;;6.85;;
19919;SDS011;10122;50.074;19.920;2023-04-06T07:58:46;14.55;;;7.88;;
19919;SDS011;10122;50.074;19.920;2023-04-06T08:01:12;11.27;;;6.65;;
19919;SDS011;10122;50.074;19.920;2023-04-06T08:03:38;9.43;;;6.43;;
19919;SDS011;10122;50.074;19.920;2023-04-06T08:06:04;13.30;;;7.03;;
19919;SDS011;10122;50.074;19.920;2023-04-06T08:08:30;10.75;;;5.93;;
19919;SDS011;10122;50.074;19.920;2023-04-06T08:10:55;9.27;;;6.10;;
19919;SDS011;10122;50.074;19.920;2023-04-06T08:13:21;11.13;;;5.63;;
19919;SDS011;10122;50.074;19.920;2023-04-06T08:15:47;9.23;;;5.53;;
19919;SDS011;10122;50.074;19.920;2023-04-06T08:18:13;9.98;;;5.72;;
19919;SDS011;10122;50.074;19.920;2023-04-06T08:20:39;9.20;;;5.70;;
19919;SDS011;10122;50.074;19.920;2023-04-06T08:23:05;10.38;;;6.10;;
19919;SDS011;10122;50.074;19.920;2023-04-06T08:25:34;9.82;;;6.18;;
19919;SDS011;10122;50.074;19.920;2023-04-06T08:28:00;9.45;;;5.88;;
19919;SDS011;10122;50.074;19.920;2023-04-06T08:30:27;10.07;;;5.70;;
19919;SDS011;10122;50.074;19.920;2023-04-06T08:32:52;8.77;;;5.65;;
19919;SDS011;10122;50.074;19.920;2023-04-06T08:35:18;9.55;;;5.65;;
19919;SDS011;10122;50.074;19.920;2023-04-06T08:37:44;10.20;;;5.60;;
19919;SDS011;10122;50.074;19.920;2023-04-06T08:40:10;9.05;;;6.10;;
19919;SDS011;10122;50.074;19.920;2023-04-06T08:42:39;8.40;;;5.13;;
19919;SDS011;10122;50.074;19.920;2023-04-06T08:45:08;10.13;;;5.53;;
19919;SDS011;10122;50.074;19.920;2023-04-06T08:47:34;9.20;;;5.88;;
19919;SDS011;10122;50.074;19.920;2023-04-06T08:50:03;10.07;;;5.30;;
19919;SDS011;10122;50.074;19.920;2023-04-06T08:52:29;9.50;;;5.82;;
19919;SDS011;10122;50.074;19.920;2023-04-06T08:55:00;8.85;;;5.07;;
19919;SDS011;10122;50.074;19.920;2023-04-06T08:57:26;9.13;;;5.15;;
19919;SDS011;10122;50.074;19.920;2023-04-06T08:59:52;8.55;;;4.90;;
19919;SDS011;10122;50.074;19.920;2023-04-06T09:02:20;7.28;;;4.57;;
19919;SDS011;10122;50.074;19.920;2023-04-06T09:04:47;7.38;;;4.43;;
19919;SDS011;10122;50.074;19.920;2023-04-06T09:07:15;7.85;;;4.60;;
19919;SDS011;10122;50.074;19.920;2023-04-06T09:09:41;6.10;;;4.38;;
19919;SDS011;10122;50.074;19.920;2023-04-06T09:12:22;6.60;;;4.40;;
19919;SDS011;10122;50.074;19.920;2023-04-06T09:14:51;8.00;;;4.38;;
19919;SDS011;10122;50.074;19.920;2023-04-06T09:17:21;8.38;;;4.45;;
19919;SDS011;10122;50.074;19.920;2023-04-06T09:19:48;8.30;;;4.63;;
19919;SDS011;10122;50.074;19.920;2023-04-06T09:22:14;7.57;;;4.25;;
19919;SDS011;10122;50.074;19.920;2023-04-06T09:24:43;6.22;;;4.28;;
19919;SDS011;10122;50.074;19.920;2023-04-06T09:27:13;8.90;;;4.85;;
19919;SDS011;10122;50.074;19.920;2023-04-06T09:29:43;7.18;;;4.55;;
19919;SDS011;10122;50.074;19.920;2023-04-06T09:32:09;7.63;;;4.03;;
19919;SDS011;10122;50.074;19.920;2023-04-06T09:34:37;8.48;;;4.97;;
19919;SDS011;10122;50.074;19.920;2023-04-06T09:37:13;6.65;;;4.65;;
19919;SDS011;10122;50.074;19.920;2023-04-06T09:39:40;8.00;;;4.10;;
19919;SDS011;10122;50.074;19.920;2023-04-06T09:42:06;9.57;;;4.50;;
19919;SDS011;10122;50.074;19.920;2023-04-06T09:44:32;8.68;;;4.50;;
19919;SDS011;10122;50.074;19.920;2023-04-06T09:46:57;8.43;;;5.15;;
19919;SDS011;10122;50.074;19.920;2023-04-06T09:49:23;9.30;;;4.82;;
19919;SDS011;10122;50.074;19.920;2023-04-06T09:52:13;9.00;;;5.55;;
19919;SDS011;10122;50.074;19.920;2023-04-06T09:54:38;7.65;;;5.00;;
19919;SDS011;10122;50.074;19.920;2023-04-06T10:02:18;7.53;;;4.93;;
19919;SDS011;10122;50.074;19.920;2023-04-06T10:05:05;9.45;;;5.65;;
19919;SDS011;10122;50.074;19.920;2023-04-06T10:07:38;8.50;;;4.93;;
19919;SDS011;10122;50.074;19.920;2023-04-06T10:10:05;9.00;;;5.53;;
19919;SDS011;10122;50.074;19.920;2023-04-06T10:12:31;11.73;;;6.20;;
19919;SDS011;10122;50.074;19.920;2023-04-06T10:14:57;9.90;;;5.22;;
19919;SDS011;10122;50.074;19.920;2023-04-06T10:17:23;8.00;;;4.57;;
19919;SDS011;10122;50.074;19.920;2023-04-06T10:19:49;9.82;;;6.10;;
19919;SDS011;10122;50.074;19.920;2023-04-06T10:22:29;9.75;;;5.35;;
19919;SDS011;10122;50.074;19.920;2023-04-06T10:25:03;11.32;;;5.68;;
19919;SDS011;10122;50.074;19.920;2023-04-06T10:27:30;9.07;;;5.93;;
19919;SDS011;10122;50.074;19.920;2023-04-06T10:30:01;11.07;;;5.15;;
19919;SDS011;10122;50.074;19.920;2023-04-06T10:32:37;10.35;;;6.18;;
19919;SDS011;10122;50.074;19.920;2023-04-06T10:37:45;8.60;;;5.75;;
19919;SDS011;10122;50.074;19.920;2023-04-06T10:40:19;9.07;;;5.30;;
19919;SDS011;10122;50.074;19.920;2023-04-06T10:42:46;9.98;;;5.80;;
19919;SDS011;10122;50.074;19.920;2023-04-06T10:45:19;8.27;;;5.65;;
19919;SDS011;10122;50.074;19.920;2023-04-06T10:47:50;10.65;;;6.38;;
19919;SDS011;10122;50.074;19.920;2023-04-06T10:50:17;11.88;;;6.32;;
19919;SDS011;10122;50.074;19.920;2023-04-06T10:52:44;8.90;;;5.80;;
19919;SDS011;10122;50.074;19.920;2023-04-06T10:55:11;9.73;;;6.07;;
19919;SDS011;10122;50.074;19.920;2023-04-06T10:57:39;9.35;;;5.38;;
19919;SDS011;10122;50.074;19.920;2023-04-06T11:00:05;10.85;;;6.20;;
19919;SDS011;10122;50.074;19.920;2023-04-06T11:02:33;9.50;;;5.80;;
19919;SDS011;10122;50.074;19.920;2023-04-06T11:05:00;10.55;;;6.30;;
19919;SDS011;10122;50.074;19.920;2023-04-06T11:07:26;9.73;;;6.00;;
19919;SDS011;10122;50.074;19.920;2023-04-06T11:09:55;8.48;;;6.03;;
19919;SDS011;10122;50.074;19.920;2023-04-06T11:12:25;9.85;;;6.50;;
19919;SDS011;10122;50.074;19.920;2023-04-06T11:14:59;9.00;;;5.70;;
19919;SDS011;10122;50.074;19.920;2023-04-06T11:17:32;9.90;;;5.70;;
19919;SDS011;10122;50.074;19.920;2023-04-06T11:20:00;9.27;;;5.28;;
19919;SDS011;10122;50.074;19.920;2023-04-06T11:22:27;10.38;;;6.10;;
19919;SDS011;10122;50.074;19.920;2023-04-06T11:25:03;10.27;;;6.30;;
19919;SDS011;10122;50.074;19.920;2023-04-06T11:27:30;10.30;;;6.40;;
19919;SDS011;10122;50.074;19.920;2023-04-06T11:29:57;10.55;;;5.97;;
19919;SDS011;10122;50.074;19.920;2023-04-06T11:32:24;9.88;;;6.22;;
19919;SDS011;10122;50.074;19.920;2023-04-06T11:34:50;10.02;;;6.35;;
19919;SDS011;10122;50.074;19.920;2023-04-06T11:37:16;9.13;;;6.25;;
19919;SDS011;10122;50.074;19.920;2023-04-06T11:39:48;10.45;;;5.97;;
19919;SDS011;10122;50.074;19.920;2023-04-06T11:42:26;9.65;;;6.15;;
19919;SDS011;10122;50.074;19.920;2023-04-06T11:44:55;9.35;;;6.10;;
19919;SDS011;10122;50.074;19.920;2023-04-06T11:47:28;8.88;;;6.20;;
19919;SDS011;10122;50.074;19.920;2023-04-06T11:50:09;11.55;;;6.43;;
19919;SDS011;10122;50.074;19.920;2023-04-06T11:52:36;9.90;;;6.15;;
19919;SDS011;10122;50.074;19.920;2023-04-06T11:55:13;9.25;;;6.25;;
19919;SDS011;10122;50.074;19.920;2023-04-06T11:57:40;10.43;;;6.10;;
19919;SDS011;10122;50.074;19.920;2023-04-06T12:00:07;9.75;;;6.50;;
19919;SDS011;10122;50.074;19.920;2023-04-06T12:02:37;9.73;;;6.50;;
19919;SDS011;10122;50.074;19.920;2023-04-06T12:05:04;9.13;;;6.40;;
19919;SDS011;10122;50.074;19.920;2023-04-06T12:07:31;9.85;;;6.50;;
19919;SDS011;10122;50.074;19.920;2023-04-06T12:09:58;10.90;;;6.70;;
19919;SDS011;10122;50.074;19.920;2023-04-06T12:12:24;10.93;;;6.78;;
19919;SDS011;10122;50.074;19.920;2023-04-06T12:14:50;11.50;;;6.80;;
19919;SDS011;10122;50.074;19.920;2023-04-06T12:17:16;11.32;;;7.00;;
19919;SDS011;10122;50.074;19.920;2023-04-06T12:19:43;10.98;;;7.13;;
19919;SDS011;10122;50.074;19.920;2023-04-06T12:22:08;12.80;;;7.20;;
19919;SDS011;10122;50.074;19.920;2023-04-06T12:24:34;11.68;;;7.32;;
19919;SDS011;10122;50.074;19.920;2023-04-06T12:27:00;12.68;;;7.55;;
19919;SDS011;10122;50.074;19.920;2023-04-06T12:29:26;11.40;;;7.20;;
19919;SDS011;10122;50.074;19.920;2023-04-06T12:31:52;10.30;;;6.15;;
19919;SDS011;10122;50.074;19.920;2023-04-06T12:34:18;10.07;;;7.18;;
19919;SDS011;10122;50.074;19.920;2023-04-06T12:36:43;12.73;;;7.70;;
19919;SDS011;10122;50.074;19.920;2023-04-06T12:39:09;10.23;;;6.97;;
19919;SDS011;10122;50.074;19.920;2023-04-06T12:41:36;11.77;;;7.40;;
19919;SDS011;10122;50.074;19.920;2023-04-06T12:44:02;11.88;;;7.35;;
19919;SDS011;10122;50.074;19.920;2023-04-06T12:46:28;11.05;;;7.43;;
19919;SDS011;10122;50.074;19.920;2023-04-06T12:48:57;13.13;;;8.07;;
19919;SDS011;10122;50.074;19.920;2023-04-06T12:51:24;12.13;;;8.25;;
19919;SDS011;10122;50.074;19.920;2023-04-06T12:53:52;13.18;;;8.50;;
19919;SDS011;10122;50.074;19.920;2023-04-06T12:56:18;12.00;;;8.00;;
19919;SDS011;10122;50.074;19.920;2023-04-06T12:58:45;13.73;;;8.48;;
19919;SDS011;10122;50.074;19.920;2023-04-06T13:01:11;13.80;;;8.45;;
19919;SDS011;10122;50.074;19.920;2023-04-06T13:03:38;13.60;;;8.20;;
19919;SDS011;10122;50.074;19.920;2023-04-06T13:06:05;12.05;;;8.15;;
19919;SDS011;10122;50.074;19.920;2023-04-06T13:08:33;15.52;;;9.25;;
19919;SDS011;10122;50.074;19.920;2023-04-06T13:10:59;14.88;;;8.88;;
19919;SDS011;10122;50.074;19.920;2023-04-06T13:13:26;17.05;;;9.68;;
19919;SDS011;10122;50.074;19.920;2023-04-06T13:15:54;13.57;;;9.07;;
19919;SDS011;10122;50.074;19.920;2023-04-06T13:18:24;15.75;;;9.77;;
19919;SDS011;10122;50.074;19.920;2023-04-06T13:20:50;13.80;;;9.18;;
19919;SDS011;10122;50.074;19.920;2023-04-06T13:23:15;12.88;;;8.23;;
19919;SDS011;10122;50.074;19.920;2023-04-06T13:25:41;13.25;;;8.90;;
19919;SDS011;10122;50.074;19.920;2023-04-06T13:28:07;12.73;;;8.70;;
19919;SDS011;10122;50.074;19.920;2023-04-06T13:30:34;13.73;;;8.00;;
19919;SDS011;10122;50.074;19.920;2023-04-06T13:32:59;15.50;;;9.65;;
19919;SDS011;10122;50.074;19.920;2023-04-06T13:35:25;14.30;;;9.02;;
19919;SDS011;10122;50.074;19.920;2023-04-06T13:37:51;13.18;;;9.57;;
19919;SDS011;10122;50.074;19.920;2023-04-06T13:40:17;14.75;;;9.95;;
19919;SDS011;10122;50.074;19.920;2023-04-06T13:42:43;15.13;;;10.05;;
19919;SDS011;10122;50.074;19.920;2023-04-06T13:45:11;15.10;;;9.07;;
19919;SDS011;10122;50.074;19.920;2023-04-06T13:47:37;13.05;;;8.98;;
19919;SDS011;10122;50.074;19.920;2023-04-06T13:50:03;14.32;;;9.13;;
19919;SDS011;10122;50.074;19.920;2023-04-06T13:52:29;13.95;;;8.60;;
19919;SDS011;10122;50.074;19.920;2023-04-06T13:54:55;12.60;;;8.20;;
19919;SDS011;10122;50.074;19.920;2023-04-06T13:57:21;14.07;;;9.15;;
19919;SDS011;10122;50.074;19.920;2023-04-06T13:59:46;16.75;;;10.60;;
19919;SDS011;10122;50.074;19.920;2023-04-06T14:02:14;13.82;;;8.38;;
19919;SDS011;10122;50.074;19.920;2023-04-06T14:04:40;14.35;;;9.05;;
19919;SDS011;10122;50.074;19.920;2023-04-06T14:07:06;14.80;;;9.38;;
19919;SDS011;10122;50.074;19.920;2023-04-06T14:09:32;16.58;;;10.30;;
19919;SDS011;10122;50.074;19.920;2023-04-06T14:11:58;14.10;;;9.63;;
19919;SDS011;10122;50.074;19.920;2023-04-06T14:14:24;16.92;;;9.77;;
19919;SDS011;10122;50.074;19.920;2023-04-06T14:16:51;15.85;;;10.45;;
19919;SDS011;10122;50.074;19.920;2023-04-06T14:19:17;16.33;;;10.55;;
19919;SDS011;10122;50.074;19.920;2023-04-06T14:21:46;16.67;;;10.52;;
19919;SDS011;10122;50.074;19.920;2023-04-06T14:24:13;14.88;;;10.27;;
19919;SDS011;10122;50.074;19.920;2023-04-06T14:26:40;15.82;;;10.02;;